Time;durP1;ratioP1;P1;durP2;ratioP2;P2;SDS_P1;SDS_P2;PMS_P1;PMS_P2;Temp;Humidity;BMP_temperature;BMP_pressure;BME280_temperature;BME280_humidity;BME280_pressure;Samples;Min_cycle;Max_cycle;Signal;HPM_P1;HPM_P2
2022/04/22 00:00:07;;;;;;;3.45;1.50;;;12.70;61.40;;;;;;4996146;28;20056;-83
2022/04/22 00:02:34;;;;;;;4.00;1.90;;;12.70;61.40;;;;;;5011503;28;20033;-83
2022/04/22 00:05:02;;;;;;;3.90;1.58;;;12.70;61.60;;;;;;4993063;28;20108;-83
2022/04/22 00:07:29;;;;;;;2.90;1.50;;;12.70;61.80;;;;;;4994270;28;20057;-83
2022/04/22 00:09:57;;;;;;;3.40;1.83;;;12.60;61.80;;;;;;5003620;28;20062;-83
2022/04/22 00:12:24;;;;;;;3.42;1.73;;;12.60;62.00;;;;;;5010077;28;20046;-83
2022/04/22 00:14:51;;;;;;;3.85;1.88;;;12.60;62.10;;;;;;5008017;28;20070;-83
2022/04/22 00:17:18;;;;;;;4.53;2.17;;;12.60;62.20;;;;;;4995277;28;20084;-83
2022/04/22 00:19:45;;;;;;;4.35;1.83;;;12.50;62.50;;;;;;5012595;28;20141;-83
2022/04/22 00:22:12;;;;;;;3.70;1.73;;;12.50;62.50;;;;;;5011021;28;20100;-83
2022/04/22 00:24:39;;;;;;;4.03;2.28;;;12.50;62.70;;;;;;4995093;28;20046;-84
2022/04/22 00:27:06;;;;;;;5.07;1.85;;;12.40;62.80;;;;;;5010848;28;20049;-83
2022/04/22 00:29:33;;;;;;;5.20;2.85;;;12.40;62.90;;;;;;5011311;28;20045;-83
2022/04/22 00:32:00;;;;;;;3.67;1.73;;;12.40;63.20;;;;;;5010711;28;20494;-83
2022/04/22 00:34:27;;;;;;;5.35;2.28;;;12.40;63.20;;;;;;5008091;28;20066;-83
2022/04/22 00:36:54;;;;;;;3.60;2.00;;;12.30;63.20;;;;;;5008075;28;20327;-83
2022/04/22 00:39:21;;;;;;;3.13;1.60;;;12.30;63.50;;;;;;5011591;28;20045;-84
2022/04/22 00:41:48;;;;;;;2.63;1.63;;;12.30;63.50;;;;;;5011211;28;20050;-83
2022/04/22 00:44:15;;;;;;;2.88;1.42;;;12.20;63.60;;;;;;4979016;28;20490;-83
2022/04/22 00:46:42;;;;;;;3.72;1.92;;;12.20;63.70;;;;;;4994812;28;20104;-83
2022/04/22 00:49:09;;;;;;;3.42;1.98;;;12.20;63.80;;;;;;4979070;28;20205;-83
2022/04/22 00:51:40;;;;;;;3.60;1.88;;;12.20;64.00;;;;;;5008021;28;20388;-83
2022/04/22 00:54:08;;;;;;;4.32;2.05;;;12.20;64.10;;;;;;5025304;28;20088;-83
2022/04/22 00:56:36;;;;;;;4.28;1.70;;;12.10;64.20;;;;;;4995182;28;20104;-83
2022/04/22 00:59:05;;;;;;;3.03;1.50;;;12.10;64.30;;;;;;4978757;28;20053;-83
2022/04/22 01:01:40;;;;;;;3.58;1.75;;;12.10;64.40;;;;;;4982114;28;20042;-83
2022/04/22 01:09:48;;;;;;;2.97;1.60;;;12.00;64.50;;;;;;5011131;28;20050;-83
2022/04/22 01:12:17;;;;;;;2.60;1.27;;;12.00;64.70;;;;;;4992477;28;20054;-83
2022/04/22 01:14:46;;;;;;;3.15;1.33;;;11.90;64.70;;;;;;5010237;28;20148;-83
2022/04/22 01:17:13;;;;;;;3.42;1.20;;;11.90;64.80;;;;;;5011050;28;20124;-83
2022/04/22 01:19:41;;;;;;;3.47;1.48;;;11.90;64.90;;;;;;5011135;28;20457;-83
2022/04/22 01:22:09;;;;;;;2.92;1.40;;;11.90;65.00;;;;;;5011065;28;20054;-83
2022/04/22 01:24:37;;;;;;;3.45;1.42;;;11.80;65.10;;;;;;5014869;28;20104;-83
2022/04/22 01:27:06;;;;;;;2.33;1.33;;;11.80;65.30;;;;;;4999230;28;20042;-83
2022/04/22 01:29:33;;;;;;;3.72;1.48;;;11.80;65.40;;;;;;5017477;28;20077;-84
2022/04/22 01:32:01;;;;;;;2.22;1.30;;;11.80;65.50;;;;;;5015298;28;20097;-83
2022/04/22 01:34:28;;;;;;;3.60;1.65;;;11.70;65.50;;;;;;4998614;28;20042;-84
2022/04/22 01:36:55;;;;;;;3.35;1.48;;;11.70;65.60;;;;;;5013530;28;20433;-83
2022/04/22 01:39:23;;;;;;;3.90;1.60;;;11.70;65.80;;;;;;4997537;28;20053;-83
2022/04/22 01:41:51;;;;;;;3.53;1.33;;;11.70;65.90;;;;;;5013540;28;20049;-83
2022/04/22 01:44:18;;;;;;;3.13;1.23;;;11.60;65.90;;;;;;5007482;28;20030;-83
2022/04/22 01:46:45;;;;;;;2.50;1.10;;;11.60;66.00;;;;;;4996708;28;20042;-83
2022/04/22 01:49:13;;;;;;;3.65;1.80;;;11.60;66.10;;;;;;5010392;28;20081;-83
2022/04/22 01:51:40;;;;;;;3.17;1.42;;;11.60;66.30;;;;;;5000265;28;20046;-83
2022/04/22 01:54:07;;;;;;;4.60;1.30;;;11.50;66.40;;;;;;4982317;28;20042;-83
2022/04/22 01:56:34;;;;;;;3.22;1.48;;;11.50;66.40;;;;;;5014519;28;20053;-83
2022/04/22 01:59:01;;;;;;;2.97;1.30;;;11.50;66.40;;;;;;4997983;28;20089;-83
2022/04/22 02:01:29;;;;;;;2.53;1.23;;;11.50;67.20;;;;;;4998351;28;20525;-83
2022/04/22 02:03:59;;;;;;;2.78;1.48;;;11.50;66.70;;;;;;5014258;28;20041;-83
2022/04/22 02:06:28;;;;;;;2.72;1.35;;;11.50;66.80;;;;;;4998495;28;20199;-83
2022/04/22 02:08:55;;;;;;;4.35;1.52;;;11.40;66.80;;;;;;5013769;28;20414;-83
2022/04/22 02:11:22;;;;;;;4.47;1.80;;;11.40;66.90;;;;;;4998054;28;20104;-83
2022/04/22 02:13:48;;;;;;;2.63;1.30;;;11.40;67.00;;;;;;5013928;28;20140;-83
2022/04/22 02:16:15;;;;;;;2.78;1.40;;;11.30;67.00;;;;;;4997747;28;20042;-83
2022/04/22 02:18:43;;;;;;;2.50;1.30;;;11.40;67.30;;;;;;4981822;28;20058;-83
2022/04/22 02:21:10;;;;;;;3.60;1.90;;;11.30;67.30;;;;;;5013847;28;20041;-83
2022/04/22 02:23:37;;;;;;;3.28;2.03;;;11.30;67.60;;;;;;5013562;28;20069;-83
2022/04/22 02:26:05;;;;;;;4.20;1.63;;;11.30;67.70;;;;;;5015108;28;20038;-83
2022/04/22 02:28:32;;;;;;;2.72;1.30;;;11.30;67.90;;;;;;4997728;28;20038;-83
2022/04/22 02:31:07;;;;;;;2.58;1.25;;;11.30;68.00;;;;;;5013898;28;20521;-83
2022/04/22 02:33:36;;;;;;;3.00;1.40;;;11.30;68.00;;;;;;5013280;28;20046;-84
2022/04/22 02:36:03;;;;;;;2.25;1.08;;;11.30;68.80;;;;;;5013635;28;20145;-83
2022/04/22 02:38:31;;;;;;;2.70;1.35;;;11.20;68.20;;;;;;4997272;28;20034;-83
2022/04/22 02:46:29;;;;;;;3.58;1.60;;;11.20;68.80;;;;;;4999583;28;20052;-83
2022/04/22 02:49:00;;;;;;;3.60;1.70;;;11.10;68.90;;;;;;5013397;28;20046;-83
2022/04/22 02:51:29;;;;;;;3.97;2.30;;;11.10;69.30;;;;;;5014750;28;20038;-84
2022/04/22 02:53:56;;;;;;;3.75;1.80;;;11.10;69.60;;;;;;5013124;28;20394;-83
2022/04/22 02:56:24;;;;;;;3.40;1.70;;;11.10;69.70;;;;;;4980841;28;20218;-83
2022/04/22 02:58:53;;;;;;;4.20;1.85;;;11.10;69.90;;;;;;5011449;28;20050;-83
2022/04/22 03:01:21;;;;;;;5.32;1.92;;;11.10;70.40;;;;;;5013343;28;20119;-83
2022/04/22 03:03:51;;;;;;;3.78;2.08;;;11.00;70.40;;;;;;5012978;28;20042;-83
2022/04/22 03:06:19;;;;;;;3.55;2.03;;;11.00;70.70;;;;;;5009672;28;20097;-83
2022/04/22 03:08:46;;;;;;;3.90;1.70;;;11.00;70.80;;;;;;4990253;28;20140;-83
2022/04/22 03:11:20;;;;;;;3.28;1.73;;;10.90;71.00;;;;;;4996582;28;20037;-83
2022/04/22 03:13:51;;;;;;;4.47;1.95;;;10.90;71.20;;;;;;5012913;28;20128;-83
2022/04/22 03:16:19;;;;;;;4.10;1.88;;;10.90;71.50;;;;;;5012791;28;20045;-83
2022/04/22 03:18:46;;;;;;;3.78;2.00;;;10.90;71.70;;;;;;5012919;28;20048;-83
2022/04/22 03:21:13;;;;;;;3.55;1.63;;;10.80;71.70;;;;;;5012671;28;20912;-83
2022/04/22 03:23:40;;;;;;;3.90;1.55;;;10.90;71.80;;;;;;4996529;28;20077;-83
2022/04/22 03:26:07;;;;;;;3.78;1.75;;;10.90;72.00;;;;;;5009202;28;20096;-83
2022/04/22 03:28:34;;;;;;;4.93;2.05;;;10.80;72.20;;;;;;4987943;28;20141;-83
2022/04/22 03:31:01;;;;;;;3.75;1.90;;;10.80;72.30;;;;;;4980239;28;20391;-83
2022/04/22 03:33:28;;;;;;;4.13;2.40;;;10.80;72.40;;;;;;5012715;28;20044;-83
2022/04/22 03:35:55;;;;;;;4.38;2.42;;;10.80;72.60;;;;;;4992307;28;20099;-83
2022/04/22 03:38:23;;;;;;;5.30;2.28;;;10.80;72.90;;;;;;5012308;28;20125;-83
2022/04/22 03:40:52;;;;;;;6.25;2.70;;;10.80;73.10;;;;;;5012461;28;20399;-83
2022/04/22 03:43:20;;;;;;;4.47;2.33;;;10.80;73.20;;;;;;4980218;28;20111;-83
2022/04/22 03:45:48;;;;;;;5.57;3.42;;;10.80;73.30;;;;;;5011359;28;20042;-83
2022/04/22 03:48:16;;;;;;;6.57;3.20;;;10.70;73.50;;;;;;4995622;28;20578;-83
2022/04/22 03:50:43;;;;;;;4.95;2.75;;;10.70;73.60;;;;;;5011859;28;20123;-83
2022/04/22 03:53:14;;;;;;;3.97;2.35;;;10.70;73.70;;;;;;4995934;28;20494;-82
2022/04/22 03:55:42;;;;;;;5.82;3.15;;;10.70;73.80;;;;;;5012244;28;20045;-83
2022/04/22 03:58:15;;;;;;;5.07;3.00;;;10.60;74.10;;;;;;4995084;28;20495;-83
2022/04/22 04:00:47;;;;;;;4.82;2.70;;;10.60;74.20;;;;;;4982711;28;20043;-83
2022/04/22 04:03:17;;;;;;;5.15;3.03;;;10.60;74.30;;;;;;4991990;28;20054;-83
2022/04/22 04:05:51;;;;;;;5.93;3.70;;;10.60;74.40;;;;;;4995976;28;20069;-84
2022/04/22 04:08:24;;;;;;;6.80;3.67;;;10.60;74.70;;;;;;4979970;28;20141;-83
2022/04/22 04:16:09;;;;;;;6.07;4.20;;;10.50;75.00;;;;;;5011987;28;20057;-83
2022/04/22 04:18:38;;;;;;;6.68;4.00;;;10.50;75.30;;;;;;4995231;28;20065;-83
2022/04/22 04:23:53;;;;;;;5.93;3.30;;;10.50;75.60;;;;;;4998393;28;20073;-83
2022/04/22 04:26:24;;;;;;;5.15;3.28;;;10.40;75.80;;;;;;4992049;28;20046;-83
2022/04/22 04:28:52;;;;;;;5.13;2.83;;;10.40;75.80;;;;;;4970339;28;20038;-84
2022/04/22 04:31:21;;;;;;;3.97;2.47;;;10.40;76.40;;;;;;5000960;28;20116;-83
2022/04/22 04:33:49;;;;;;;6.32;3.75;;;10.40;75.90;;;;;;4987861;28;20064;-84
2022/04/22 04:36:16;;;;;;;5.90;3.08;;;10.40;75.90;;;;;;4980531;28;20049;-84
2022/04/22 04:38:44;;;;;;;5.43;3.20;;;10.40;76.00;;;;;;4959651;28;20042;-84
2022/04/22 04:41:13;;;;;;;5.93;4.43;;;10.40;76.10;;;;;;4978585;28;20034;-78
2022/04/22 04:43:41;;;;;;;7.20;3.85;;;10.40;76.90;;;;;;4973556;28;20045;-78
2022/04/22 04:46:08;;;;;;;5.10;2.90;;;10.40;76.20;;;;;;4990798;28;20137;-78
2022/04/22 04:48:36;;;;;;;5.50;3.15;;;10.50;76.40;;;;;;5011256;28;20050;-78
2022/04/22 04:51:03;;;;;;;5.32;3.47;;;10.40;76.40;;;;;;4980893;28;20053;-78
2022/04/22 04:53:30;;;;;;;4.80;3.47;;;10.40;76.50;;;;;;4979123;28;20042;-78
2022/04/22 04:55:58;;;;;;;4.70;3.40;;;10.40;76.60;;;;;;4994917;28;20070;-78
2022/04/22 04:58:25;;;;;;;5.80;3.45;;;10.40;76.70;;;;;;5005102;28;20406;-78
2022/04/22 05:00:52;;;;;;;6.65;4.13;;;10.40;76.80;;;;;;5010910;28;20061;-78
2022/04/22 05:03:19;;;;;;;5.30;3.30;;;10.40;76.90;;;;;;4995550;28;20030;-78
2022/04/22 05:05:46;;;;;;;6.38;3.97;;;10.40;77.00;;;;;;4954335;28;20045;-79
2022/04/22 05:08:13;;;;;;;6.20;3.78;;;10.30;77.20;;;;;;5006671;28;20057;-79
2022/04/22 05:10:40;;;;;;;6.72;3.75;;;10.30;77.20;;;;;;4984403;28;20042;-83
2022/04/22 05:13:08;;;;;;;6.32;3.50;;;10.40;77.20;;;;;;5006078;28;20127;-84
2022/04/22 05:15:35;;;;;;;5.60;3.40;;;10.40;77.30;;;;;;4991394;28;20042;-84
2022/04/22 05:18:03;;;;;;;7.60;4.05;;;10.40;77.30;;;;;;4970735;28;20049;-84
2022/04/22 05:20:34;;;;;;;7.55;4.72;;;10.40;77.50;;;;;;5008448;28;20483;-83
2022/04/22 05:23:01;;;;;;;7.00;4.90;;;10.40;77.70;;;;;;4984008;28;20429;-83
2022/04/22 05:25:29;;;;;;;8.25;4.55;;;10.40;77.80;;;;;;5003054;28;20038;-84
2022/04/22 05:27:56;;;;;;;8.18;5.65;;;10.40;78.00;;;;;;5031574;28;20401;-78
2022/04/22 05:33:08;;;;;;;7.90;5.05;;;10.30;78.20;;;;;;4989197;28;20093;-79
2022/04/22 05:35:35;;;;;;;5.50;3.95;;;10.30;78.40;;;;;;5014258;28;20343;-79
2022/04/22 05:38:05;;;;;;;8.00;4.28;;;10.30;78.40;;;;;;4993494;28;20038;-79
2022/04/22 05:40:34;;;;;;;6.38;3.40;;;10.30;78.30;;;;;;4984597;28;20077;-79
2022/04/22 05:43:02;;;;;;;8.48;5.28;;;10.30;78.30;;;;;;4991028;28;20051;-78
2022/04/22 05:45:29;;;;;;;6.10;4.35;;;10.40;78.50;;;;;;4991596;28;20376;-79
2022/04/22 05:47:57;;;;;;;8.45;4.88;;;10.40;78.30;;;;;;4989808;28;20069;-79
2022/04/22 05:50:25;;;;;;;6.85;4.20;;;10.60;78.40;;;;;;4984453;28;20030;-80
2022/04/22 05:52:53;;;;;;;6.82;4.53;;;10.70;78.20;;;;;;4997936;28;20072;-79
2022/04/22 05:55:22;;;;;;;6.35;3.80;;;10.70;78.00;;;;;;4981553;28;20046;-79
2022/04/22 05:57:52;;;;;;;6.30;4.03;;;10.80;77.90;;;;;;5003421;28;20056;-79
2022/04/22 06:00:23;;;;;;;8.02;4.68;;;10.80;77.80;;;;;;5013648;28;20137;-79
2022/04/22 06:02:52;;;;;;;7.55;4.95;;;10.80;77.90;;;;;;5005766;28;20042;-79
2022/04/22 06:05:22;;;;;;;7.07;5.30;;;10.80;78.10;;;;;;4978750;28;20049;-78
2022/04/22 06:10:31;;;;;;;7.40;5.30;;;10.90;78.10;;;;;;4981836;28;20375;-78
2022/04/22 06:10:38;;;;;;;6.43;4.45;;;10.90;78.00;;;;;;5011753;28;20061;-78
2022/04/22 06:13:06;;;;;;;7.80;5.13;;;11.00;77.90;;;;;;4993082;28;20100;-79
2022/04/22 06:15:33;;;;;;;7.25;4.95;;;11.00;77.80;;;;;;4995838;28;20057;-78
2022/04/22 06:18:01;;;;;;;7.72;4.70;;;11.00;77.80;;;;;;4985008;28;20095;-78
2022/04/22 06:20:29;;;;;;;8.57;5.85;;;11.10;77.80;;;;;;5003986;28;20486;-79
2022/04/22 06:22:56;;;;;;;10.65;5.45;;;11.10;77.90;;;;;;4983653;28;20054;-78
2022/04/22 06:25:24;;;;;;;8.35;5.03;;;11.00;77.90;;;;;;5004925;28;20053;-78
2022/04/22 06:27:51;;;;;;;9.35;4.10;;;11.00;77.70;;;;;;4998423;28;20045;-77
2022/04/22 06:30:23;;;;;;;7.15;4.95;;;11.10;77.70;;;;;;4992986;28;20042;-79
2022/04/22 06:32:53;;;;;;;8.05;5.35;;;11.20;77.60;;;;;;4990845;28;20065;-79
2022/04/22 06:35:21;;;;;;;8.13;5.22;;;11.30;77.50;;;;;;4996224;28;20410;-80
2022/04/22 06:37:51;;;;;;;7.18;4.65;;;11.40;77.30;;;;;;4990999;28;20046;-80
2022/04/22 06:45:53;;;;;;;6.18;4.00;;;11.60;76.70;;;;;;4974398;28;20038;-79
2022/04/22 06:48:20;;;;;;;8.23;5.10;;;11.70;76.60;;;;;;4995876;28;20050;-79
2022/04/22 06:51:08;;;;;;;9.82;4.63;;;11.80;76.50;;;;;;4983562;28;20117;-80
2022/04/22 06:53:36;;;;;;;10.43;5.72;;;11.80;76.30;;;;;;4995614;28;20057;-80
2022/04/22 06:56:06;;;;;;;6.88;4.82;;;11.90;76.20;;;;;;4980790;28;20050;-80
2022/04/22 06:58:37;;;;;;;7.70;4.72;;;12.00;76.10;;;;;;4995424;28;20049;-79
2022/04/22 07:01:06;;;;;;;7.20;4.30;;;12.00;75.90;;;;;;4996406;28;20041;-80
2022/04/22 07:03:54;;;;;;;7.25;4.10;;;12.10;75.90;;;;;;5013600;28;20517;-80
2022/04/22 07:06:21;;;;;;;7.35;4.78;;;12.20;75.70;;;;;;4977473;28;20138;-80
2022/04/22 07:08:52;;;;;;;7.40;4.07;;;12.30;75.50;;;;;;4990689;28;20054;-79
2022/04/22 07:11:24;;;;;;;7.50;4.80;;;12.30;75.30;;;;;;4993137;28;20457;-80
2022/04/22 07:13:57;;;;;;;6.53;3.88;;;12.40;75.20;;;;;;4989740;28;20133;-80
2022/04/22 07:16:25;;;;;;;9.77;5.55;;;12.50;75.00;;;;;;4996606;28;20040;-79
2022/04/22 07:18:52;;;;;;;8.05;5.82;;;12.50;74.90;;;;;;4995926;28;20046;-80
2022/04/22 07:21:23;;;;;;;6.47;4.75;;;12.50;74.80;;;;;;4994814;28;20046;-78
2022/04/22 07:23:50;;;;;;;10.20;5.68;;;12.50;74.80;;;;;;5013253;28;20034;-79
2022/04/22 07:26:19;;;;;;;7.65;5.10;;;12.60;74.70;;;;;;4979237;28;20038;-79
2022/04/22 07:28:48;;;;;;;7.30;4.85;;;12.70;74.50;;;;;;4995665;28;20140;-78
2022/04/22 07:31:19;;;;;;;7.63;4.55;;;12.80;74.40;;;;;;4959554;28;20549;-79
2022/04/22 07:33:47;;;;;;;8.15;4.68;;;12.80;74.80;;;;;;5011811;28;20056;-79
2022/04/22 07:36:14;;;;;;;6.57;4.10;;;12.90;74.00;;;;;;4963162;28;20042;-80
2022/04/22 07:38:42;;;;;;;6.97;4.63;;;13.00;73.80;;;;;;4963815;28;20117;-80
2022/04/22 07:41:11;;;;;;;9.15;5.53;;;13.00;73.60;;;;;;4993363;28;21402;-81
2022/04/22 07:49:11;;;;;;;7.20;4.70;;;13.20;73.20;;;;;;4995932;28;20510;-81
2022/04/22 07:51:40;;;;;;;6.28;3.55;;;13.20;73.00;;;;;;4995003;28;20117;-80
2022/04/22 07:54:08;;;;;;;5.88;3.50;;;13.30;72.90;;;;;;4995242;28;20045;-80
2022/04/22 07:56:35;;;;;;;8.18;4.72;;;13.40;72.70;;;;;;4992168;28;20065;-79
2022/04/22 07:59:02;;;;;;;7.78;4.95;;;13.60;72.40;;;;;;4995908;28;20053;-80
2022/04/22 08:01:28;;;;;;;7.97;4.75;;;13.60;71.90;;;;;;4963378;28;20050;-79
2022/04/22 08:03:58;;;;;;;9.95;5.22;;;13.70;71.70;;;;;;4995480;28;20037;-79
2022/04/22 08:06:25;;;;;;;8.30;5.28;;;13.60;71.60;;;;;;4996053;28;20470;-79
2022/04/22 08:08:52;;;;;;;9.68;5.10;;;13.60;71.50;;;;;;4981178;28;20054;-79
2022/04/22 08:11:20;;;;;;;8.73;5.55;;;13.70;71.40;;;;;;5011870;28;20053;-79
2022/04/22 08:13:47;;;;;;;6.95;4.22;;;13.80;71.20;;;;;;4995366;28;20054;-80
2022/04/22 08:16:14;;;;;;;6.25;4.28;;;14.00;70.90;;;;;;4968843;28;20392;-81
2022/04/22 08:18:41;;;;;;;10.02;5.20;;;14.10;70.60;;;;;;5025708;28;20050;-83
2022/04/22 08:21:10;;;;;;;8.15;5.43;;;14.20;70.20;;;;;;5008314;28;20471;-80
2022/04/22 08:23:37;;;;;;;11.65;5.75;;;14.10;70.00;;;;;;4991817;28;20046;-80
2022/04/22 08:26:04;;;;;;;7.78;5.25;;;14.10;70.00;;;;;;4995423;28;20052;-81
2022/04/22 08:28:31;;;;;;;7.22;4.63;;;14.20;70.00;;;;;;4991823;28;20042;-81
2022/04/22 08:30:58;;;;;;;8.20;5.00;;;14.20;69.80;;;;;;5008089;28;20100;-80
2022/04/22 08:33:26;;;;;;;6.78;4.43;;;14.20;69.60;;;;;;5009573;28;20041;-80
2022/04/22 08:35:53;;;;;;;8.05;5.28;;;14.40;69.50;;;;;;5011157;28;20052;-80
2022/04/22 08:38:20;;;;;;;7.38;4.00;;;14.40;69.10;;;;;;5011220;28;20049;-80
2022/04/22 08:40:48;;;;;;;8.07;4.40;;;14.50;69.10;;;;;;5002411;28;20088;-80
2022/04/22 08:43:17;;;;;;;7.10;4.15;;;14.60;68.80;;;;;;4994389;28;20042;-83
2022/04/22 08:45:44;;;;;;;7.60;4.55;;;14.70;68.50;;;;;;5003874;28;20042;-82
2022/04/22 08:50:59;;;;;;;9.77;4.97;;;14.90;68.20;;;;;;5011388;28;20092;-83
2022/04/22 08:53:29;;;;;;;6.78;3.92;;;15.00;67.80;;;;;;5000604;28;20041;-82
2022/04/22 08:55:59;;;;;;;7.18;3.80;;;15.10;67.60;;;;;;5004146;28;20470;-84
2022/04/22 08:58:27;;;;;;;6.53;3.72;;;15.10;67.50;;;;;;5007524;28;20038;-85
2022/04/22 09:00:59;;;;;;;6.22;4.13;;;15.10;67.40;;;;;;5007715;28;20050;-84
2022/04/22 09:03:27;;;;;;;6.70;4.35;;;15.20;67.20;;;;;;5025348;28;20060;-84
2022/04/22 09:05:56;;;;;;;6.90;4.05;;;15.30;67.00;;;;;;4987638;28;20043;-85
2022/04/22 09:08:25;;;;;;;5.57;3.90;;;15.30;66.80;;;;;;5010359;28;20077;-83
2022/04/22 09:10:57;;;;;;;5.70;3.13;;;15.30;66.60;;;;;;4975327;28;20549;-82
2022/04/22 09:13:26;;;;;;;6.65;3.72;;;15.40;66.50;;;;;;4959403;28;20049;-83
2022/04/22 09:15:54;;;;;;;7.20;3.95;;;15.50;66.10;;;;;;4978561;28;20044;-83
2022/04/22 09:18:39;;;;;;;8.18;3.90;;;15.50;65.90;;;;;;4999689;28;20050;-82
2022/04/22 09:21:18;;;;;;;7.38;4.10;;;15.60;65.70;;;;;;4994569;28;20483;-83
2022/04/22 09:23:46;;;;;;;8.90;4.72;;;15.60;65.10;;;;;;4994763;28;20057;-83
2022/04/22 09:26:24;;;;;;;7.55;4.63;;;15.60;65.10;;;;;;4962562;28;20042;-82
2022/04/22 09:28:58;;;;;;;6.00;3.97;;;15.50;65.10;;;;;;4991364;28;20054;-83
2022/04/22 09:31:27;;;;;;;5.80;4.00;;;15.50;65.10;;;;;;4981712;28;20038;-83
2022/04/22 09:33:57;;;;;;;7.15;3.75;;;15.50;65.00;;;;;;4991214;28;20038;-83
2022/04/22 09:44:56;;;;;;;;;;;15.60;64.70;;;;;;4993994;28;20104;-83
2022/04/22 09:47:31;;;;;;;4.20;2.50;;;15.60;64.60;;;;;;4980267;28;19996;-84
2022/04/22 09:50:00;;;;;;;4.32;2.40;;;15.70;64.60;;;;;;4995535;28;20125;-84
2022/04/22 09:52:31;;;;;;;5.65;3.40;;;15.90;64.40;;;;;;4982227;28;20129;-84
2022/04/22 09:55:06;;;;;;;3.65;2.63;;;16.00;63.90;;;;;;4983560;28;20073;-84
2022/04/22 09:58:02;;;;;;;6.25;3.30;;;16.20;63.80;;;;;;4994075;28;20049;-84
2022/04/22 10:00:31;;;;;;;4.10;2.42;;;16.20;63.40;;;;;;4986198;28;20068;-84
2022/04/22 10:02:58;;;;;;;4.55;2.65;;;16.30;63.40;;;;;;5003616;28;20087;-83
2022/04/22 10:05:32;;;;;;;4.55;3.08;;;16.40;63.20;;;;;;4995894;28;20049;-82
2022/04/22 10:08:02;;;;;;;4.75;2.63;;;16.50;62.80;;;;;;5013890;28;20486;-82
2022/04/22 10:10:37;;;;;;;5.88;3.42;;;16.40;62.50;;;;;;4976381;28;20054;-83
2022/04/22 10:13:06;;;;;;;5.97;3.20;;;16.20;62.50;;;;;;4956799;28;20057;-83
2022/04/22 10:15:37;;;;;;;5.03;2.70;;;16.10;62.80;;;;;;4983759;28;20066;-83
2022/04/22 10:18:04;;;;;;;4.93;2.63;;;16.20;62.90;;;;;;4975132;28;20051;-83
2022/04/22 10:20:33;;;;;;;4.57;2.53;;;16.20;62.80;;;;;;4977799;28;20034;-82
2022/04/22 10:23:01;;;;;;;4.03;2.20;;;16.30;62.50;;;;;;4978407;28;20038;-83
2022/04/22 10:25:31;;;;;;;2.88;2.00;;;16.50;62.50;;;;;;4976843;28;20038;-83
2022/04/22 10:28:05;;;;;;;4.70;2.60;;;16.70;62.00;;;;;;4979848;28;20043;-83
2022/04/22 10:30:33;;;;;;;3.92;2.20;;;17.30;61.20;;;;;;4957533;28;20042;-83
2022/04/22 10:33:02;;;;;;;4.53;2.47;;;17.50;60.30;;;;;;4977433;28;20046;-83
2022/04/22 10:35:29;;;;;;;4.85;2.75;;;17.60;59.80;;;;;;4977290;28;20054;-83
2022/04/22 10:37:59;;;;;;;4.70;2.53;;;17.60;59.90;;;;;;4978078;28;20136;-83
2022/04/22 10:40:26;;;;;;;3.95;2.47;;;17.70;59.80;;;;;;4976236;28;20046;-83
2022/04/22 10:42:58;;;;;;;5.18;2.90;;;17.90;59.60;;;;;;4977698;28;20042;-83
2022/04/22 10:48:24;;;;;;;4.20;2.45;;;18.10;59.20;;;;;;4977490;28;20445;-83
2022/04/22 10:51:02;;;;;;;5.20;2.22;;;18.30;59.20;;;;;;4977933;28;20080;-84
2022/04/22 10:53:35;;;;;;;4.68;2.60;;;18.20;58.40;;;;;;4977890;28;20093;-83
2022/04/22 10:56:20;;;;;;;;;;;18.20;58.30;;;;;;4974974;28;20166;-83
2022/04/22 10:58:47;;;;;;;3.85;1.85;;;18.10;58.60;;;;;;4965963;28;19995;-83
2022/04/22 11:01:29;;;;;;;2.80;1.50;;;18.00;58.70;;;;;;4967001;28;20043;-83
2022/04/22 11:03:57;;;;;;;4.53;1.95;;;18.10;58.40;;;;;;4977579;28;20054;-83
2022/04/22 11:06:24;;;;;;;4.88;2.20;;;18.20;58.10;;;;;;4961427;28;20126;-83
2022/04/22 11:09:02;;;;;;;4.57;2.00;;;18.30;57.90;;;;;;4980564;28;20502;-84
2022/04/22 11:11:40;;;;;;;4.30;2.33;;;18.30;57.30;;;;;;4972822;28;20134;-82
2022/04/22 11:14:21;;;;;;;3.30;1.98;;;18.10;57.00;;;;;;4961433;28;20042;-83
2022/04/22 11:16:48;;;;;;;3.67;2.08;;;17.90;57.30;;;;;;4977099;28;20400;-83
2022/04/22 11:19:18;;;;;;;3.60;1.83;;;17.80;57.20;;;;;;4963981;28;20751;-83
2022/04/22 11:21:52;;;;;;;4.18;1.60;;;17.70;57.10;;;;;;4987507;28;20045;-83
2022/04/22 11:24:25;;;;;;;3.65;1.80;;;17.70;56.90;;;;;;4977782;28;20038;-84
2022/04/22 11:27:02;;;;;;;4.25;1.80;;;18.20;56.00;;;;;;4974154;28;20567;-84
2022/04/22 11:29:29;;;;;;;3.63;2.05;;;18.70;54.70;;;;;;4957029;28;20050;-84
2022/04/22 11:31:59;;;;;;;2.20;1.30;;;18.40;54.20;;;;;;4977066;28;20443;-84
2022/04/22 11:35:12;;;;;;;3.50;1.73;;;18.50;53.70;;;;;;4976778;28;20430;-83
2022/04/22 11:37:39;;;;;;;3.35;1.65;;;18.40;53.40;;;;;;4950994;28;20058;-83
2022/04/22 11:40:08;;;;;;;2.40;1.20;;;18.10;53.60;;;;;;4976850;28;20042;-83
2022/04/22 11:42:43;;;;;;;2.80;1.13;;;18.50;53.40;;;;;;4977359;28;20085;-83
2022/04/22 11:45:13;;;;;;;3.30;1.88;;;18.40;53.00;;;;;;4977237;28;20078;-83
2022/04/22 11:47:41;;;;;;;2.53;1.33;;;18.20;52.90;;;;;;4974366;28;20070;-84
2022/04/22 11:50:16;;;;;;;3.63;1.60;;;18.20;53.40;;;;;;4976857;28;20077;-83
2022/04/22 11:52:43;;;;;;;2.88;1.63;;;18.10;53.10;;;;;;4993981;28;20064;-83
2022/04/22 11:55:10;;;;;;;3.65;1.88;;;18.20;53.20;;;;;;4932938;28;20042;-83
2022/04/22 11:57:38;;;;;;;3.65;1.35;;;18.30;52.90;;;;;;4957745;28;20202;-83
2022/04/22 12:05:47;;;;;;;2.40;1.20;;;18.10;53.00;;;;;;4973550;28;20043;-83
2022/04/22 12:08:15;;;;;;;3.03;1.20;;;18.00;53.20;;;;;;4986031;28;20042;-83
2022/04/22 12:10:47;;;;;;;4.10;1.40;;;18.00;53.30;;;;;;4996055;28;20068;-83
2022/04/22 12:13:16;;;;;;;3.35;1.60;;;18.00;53.00;;;;;;4996508;28;20129;-83
2022/04/22 12:15:49;;;;;;;2.88;1.40;;;17.90;52.70;;;;;;4992400;28;20132;-87
2022/04/22 12:18:32;;;;;;;2.30;1.33;;;17.90;52.60;;;;;;4988473;28;20564;-86
2022/04/22 12:20:59;;;;;;;2.42;1.20;;;18.00;52.80;;;;;;5009529;28;20046;-85
2022/04/22 12:23:38;;;;;;;3.78;1.30;;;18.10;52.60;;;;;;4979386;28;20100;-85
2022/04/22 12:26:12;;;;;;;2.85;1.52;;;18.20;52.40;;;;;;4995256;28;20049;-86
2022/04/22 12:28:58;;;;;;;5.10;1.73;;;18.30;52.30;;;;;;4998872;28;20041;-85
2022/04/22 12:31:28;;;;;;;2.95;1.60;;;18.30;52.10;;;;;;4979142;28;20064;-86
2022/04/22 12:34:08;;;;;;;2.88;1.58;;;18.10;52.60;;;;;;4976197;28;20546;-86
2022/04/22 12:36:37;;;;;;;3.13;1.33;;;18.10;52.60;;;;;;4978043;28;20136;-84
2022/04/22 12:39:05;;;;;;;2.50;1.38;;;18.00;52.70;;;;;;4995193;28;20061;-85
2022/04/22 12:41:45;;;;;;;4.47;1.50;;;18.00;52.70;;;;;;4983016;28;20046;-85
2022/04/22 12:44:13;;;;;;;4.93;1.95;;;18.20;52.60;;;;;;4995057;28;20042;-84
2022/04/22 12:52:25;;;;;;;2.30;1.67;;;18.50;51.30;;;;;;4989291;28;20471;-85
2022/04/22 12:55:02;;;;;;;5.80;1.75;;;18.50;51.40;;;;;;5007195;28;20100;-87
2022/04/22 12:57:29;;;;;;;4.05;1.45;;;18.60;51.30;;;;;;5000792;28;20044;-84
2022/04/22 12:59:57;;;;;;;3.00;1.27;;;18.70;51.20;;;;;;4978711;28;20053;-87
2022/04/22 13:02:46;;;;;;;2.88;1.35;;;18.90;51.10;;;;;;4992072;28;20138;-86
2022/04/22 13:05:21;;;;;;;3.65;1.50;;;19.20;50.80;;;;;;4992957;28;20057;-87
2022/04/22 13:08:09;;;;;;;2.95;1.30;;;19.50;50.60;;;;;;4994556;28;20406;-85
2022/04/22 13:11:08;;;;;;;;;;;;;;;;;;;;;
2022/04/22 13:13:44;;;;;;;2.95;1.23;;;19.80;49.80;;;;;;4997374;28;20067;-85
2022/04/22 13:16:31;;;;;;;2.33;1.15;;;19.60;49.70;;;;;;4994751;28;20046;-84
2022/04/22 13:19:00;;;;;;;3.00;1.45;;;19.50;49.90;;;;;;5012398;28;20034;-85
2022/04/22 13:21:27;;;;;;;3.72;1.63;;;19.30;49.60;;;;;;5003225;28;20525;-85
2022/04/22 13:24:14;;;;;;;2.90;1.40;;;19.10;50.00;;;;;;5008621;28;20052;-82
2022/04/22 13:26:41;;;;;;;2.75;1.27;;;18.90;50.20;;;;;;5015280;28;20044;-85
2022/04/22 13:29:08;;;;;;;4.20;1.05;;;18.70;50.20;;;;;;5014655;28;20072;-83
2022/04/22 13:31:35;;;;;;;3.00;1.33;;;18.60;50.40;;;;;;5011823;28;20050;-85
2022/04/22 13:34:04;;;;;;;2.55;1.38;;;18.50;50.50;;;;;;4988745;28;20502;-84
2022/04/22 13:36:34;;;;;;;2.15;1.20;;;18.50;50.50;;;;;;5011524;28;20038;-85
2022/04/22 13:39:04;;;;;;;1.95;0.95;;;18.50;50.40;;;;;;5008551;28;20049;-85
2022/04/22 13:41:41;;;;;;;2.30;1.05;;;18.50;50.30;;;;;;5014349;28;20061;-84
2022/04/22 13:44:10;;;;;;;3.35;1.13;;;18.60;50.20;;;;;;4971320;28;20054;-85
2022/04/22 13:52:26;;;;;;;2.65;1.30;;;19.10;49.60;;;;;;5014490;28;20050;-78
2022/04/22 13:54:53;;;;;;;3.83;1.25;;;19.10;49.30;;;;;;4996823;28;20050;-79
2022/04/22 13:57:20;;;;;;;2.33;0.95;;;19.20;49.40;;;;;;5014393;28;20041;-79
2022/04/22 13:59:47;;;;;;;3.17;1.25;;;19.20;49.30;;;;;;5015057;28;20120;-79
2022/04/22 14:02:16;;;;;;;4.03;1.27;;;19.40;49.10;;;;;;4992902;28;20139;-82
2022/04/22 14:04:47;;;;;;;3.47;1.83;;;19.30;49.00;;;;;;5007176;28;20054;-80